Malaga, WA (98828)

7:44 AM PST on December 25, 2014 (GMT -0800)
Summer Hill | Change Station
CLOSE
Current Station
Personal Weather Station
Location: East Wenatchee, WA
Elevation: 925 ft
Nearby Weather Stations

Elev 925 ft 47.40 °N, 120.27 °W | Updated 2 minutes ago

Clear
Clear
30.9 °F
Feels Like 31 °F
N
2.2
Wind Variable Wind from NE

Today
High -- | Low -- °F
--% Chance of Precip.
Yesterday
High -- | Low -- °F
Precip. -- in
7:46 AM 4:15 PM
Waxing Crescent, 17% visible
Pressure 30.05 in
Visibility 10.0 miles
Clouds Clear
Windchill 31 °F
Dew Point 27 °F
Humidity 86%
Rainfall 0.00 in
Snow Depth Not available.
UV 0 out of 12
Pollen .90 out of 12
Air Quality Not available.
Flu Activity Not available.
METAR KEAT 251455Z AUTO 31008KT 10SM CLR 02/M04 A3002 RMK AO2 SLP174 T00221039 51012 $

More Conditions Fewer Conditions

Pressure 30.05 in
Visibility 10.0 miles
Clouds Clear
Windchill 31 °F
Dew Point 27 °F
Humidity 86%
Rainfall 0.00 in
Snow Depth Not available.
UV 0 out of 12
Pollen .90 out of 12
Air Quality Not available.
Flu Activity Not available.
METAR KEAT 251455Z AUTO 31008KT 10SM CLR 02/M04 A3002 RMK AO2 SLP174 T00221039 51012 $

More Conditions Fewer Conditions

10-Day Weather Forecast

Almanac

Astronomy

Dec. 25, 2014 Rise Set
Actual Time
Civil Twilight
Nautical Twilight
Astronomical Twilight
Moon
Length of Visible Light
Length of Day
Tomorrow will be .
, % of the Moon is Illuminated

Today's Extremes

State Highs State Lows

Community

WunderPhotos

Upload Photos

1,780,315 photos uploaded!

WunderBlogs® & News

Nearby

Air Quality

  Air Quality AQ Index Pollutant
Not available.

Snow Depth

Station Depth Elevation

Earthquake Activity

City Distance Mag. Time & Date
Minimum magnitude displayed is 2.5.

Coastal Water Temperatures

Place Temperature

Nearby Weather Stations